createdAt,value
2017-09-10T00:00:47.000Z,17.3
2017-09-10T00:01:49.386Z,17.3
2017-09-10T00:02:51.780Z,17.3
2017-09-10T00:03:54.183Z,17.3
2017-09-10T00:04:56.591Z,17.3
2017-09-10T00:05:58.974Z,17.3
2017-09-10T00:07:01.380Z,17.3
2017-09-10T00:08:03.773Z,17.3
2017-09-10T00:09:06.182Z,17.3
2017-09-10T00:10:08.580Z,17.3
2017-09-10T00:11:10.968Z,17.3
2017-09-10T00:12:13.366Z,17.3
2017-09-10T00:13:15.760Z,17.3
2017-09-10T00:14:18.177Z,17.3
2017-09-10T00:15:20.586Z,17.3
2017-09-10T00:16:22.981Z,17.3
2017-09-10T00:17:25.375Z,17.3
2017-09-10T00:18:27.764Z,17.3
2017-09-10T00:19:30.157Z,17.2
2017-09-10T00:20:32.574Z,17.3
2017-09-10T00:21:34.965Z,17.3
2017-09-10T00:22:37.353Z,17.2
2017-09-10T00:23:39.748Z,17.2
2017-09-10T00:24:42.143Z,17.2
2017-09-10T00:25:44.551Z,17.2
2017-09-10T00:26:46.973Z,17.2
2017-09-10T00:27:49.350Z,17.1
2017-09-10T00:28:51.747Z,17.1
2017-09-10T00:29:54.147Z,17.1
2017-09-10T00:30:56.553Z,17.1
2017-09-10T00:31:58.946Z,17.1
2017-09-10T00:33:01.670Z,17.1
2017-09-10T00:34:04.067Z,17.1
2017-09-10T00:35:06.472Z,17.1
2017-09-10T00:36:08.875Z,17
2017-09-10T00:37:11.268Z,17
2017-09-10T00:38:13.668Z,17
2017-09-10T00:39:16.071Z,17
2017-09-10T00:40:18.470Z,17
2017-09-10T00:41:20.868Z,17
2017-09-10T00:42:23.583Z,17
2017-09-10T00:43:25.982Z,17
2017-09-10T00:44:28.384Z,17
2017-09-10T00:45:30.781Z,17
2017-09-10T00:46:33.175Z,17
2017-09-10T00:47:35.570Z,17
2017-09-10T00:48:37.957Z,16.9
2017-09-10T00:49:40.355Z,16.9
2017-09-10T00:50:42.750Z,16.9
2017-09-10T00:51:45.155Z,16.9
2017-09-10T00:52:47.547Z,16.9
2017-09-10T00:53:49.948Z,16.9
2017-09-10T00:54:52.348Z,16.9
2017-09-10T00:55:54.746Z,16.9
2017-09-10T00:56:57.485Z,16.9
2017-09-10T00:57:59.895Z,16.9
2017-09-10T00:59:02.288Z,16.8
2017-09-10T01:00:05.025Z,16.8
2017-09-10T01:01:07.421Z,16.8
2017-09-10T01:02:09.815Z,16.8
2017-09-10T01:03:12.556Z,16.8
2017-09-10T01:04:14.952Z,16.8
2017-09-10T01:05:17.343Z,16.8
2017-09-10T01:06:19.745Z,16.8
2017-09-10T01:07:22.134Z,16.7
2017-09-10T01:08:24.528Z,16.7
2017-09-10T01:09:26.926Z,16.7
2017-09-10T01:10:29.332Z,16.7
2017-09-10T01:11:32.091Z,16.7
2017-09-10T01:12:34.482Z,16.7
2017-09-10T01:13:36.876Z,16.7
2017-09-10T01:14:39.276Z,16.7
2017-09-10T01:15:41.675Z,16.7
2017-09-10T01:16:44.076Z,16.6
2017-09-10T01:17:46.473Z,16.6
2017-09-10T01:18:48.860Z,16.6
2017-09-10T01:19:51.272Z,16.6
2017-09-10T01:20:53.668Z,16.6
2017-09-10T01:21:56.067Z,16.6
2017-09-10T01:22:58.462Z,16.6
2017-09-10T01:24:00.854Z,16.6
2017-09-10T01:25:03.251Z,16.5
2017-09-10T01:26:05.651Z,16.5
2017-09-10T01:27:08.430Z,16.5
2017-09-10T01:28:10.837Z,16.5
2017-09-10T01:29:13.244Z,16.5
2017-09-10T01:30:15.643Z,16.5
2017-09-10T01:31:18.039Z,16.5
2017-09-10T01:32:20.807Z,16.5
2017-09-10T01:33:23.226Z,16.5
2017-09-10T01:34:25.985Z,16.5
2017-09-10T01:35:28.744Z,16.5
2017-09-10T01:36:31.505Z,16.4
2017-09-10T01:37:33.895Z,16.4
2017-09-10T01:38:36.283Z,16.4
2017-09-10T01:39:38.681Z,16.4
2017-09-10T01:40:41.094Z,16.4
2017-09-10T01:41:43.473Z,16.4
2017-09-10T01:42:45.865Z,16.4
2017-09-10T01:43:48.265Z,16.4
2017-09-10T01:44:50.653Z,16.4
2017-09-10T01:45:53.061Z,16.3
2017-09-10T01:46:55.455Z,16.4
2017-09-10T01:47:57.850Z,16.3
2017-09-10T01:49:00.250Z,16.3
2017-09-10T01:50:02.992Z,16.3
2017-09-10T01:51:05.383Z,16.3
2017-09-10T01:52:07.783Z,16.3
2017-09-10T01:53:10.165Z,16.3
2017-09-10T01:54:12.566Z,16.3
2017-09-10T01:55:14.963Z,16.3
2017-09-10T01:56:17.355Z,16.2
2017-09-10T01:57:19.747Z,16.3
2017-09-10T01:58:22.140Z,16.2
2017-09-10T01:59:24.531Z,16.2
2017-09-10T02:00:26.926Z,16.2
2017-09-10T02:01:29.662Z,16.2
2017-09-10T02:02:32.062Z,16.2
2017-09-10T02:03:34.456Z,16.2
2017-09-10T02:04:36.855Z,16.2
2017-09-10T02:05:39.270Z,16.2
2017-09-10T02:06:41.678Z,16.1
2017-09-10T02:07:44.413Z,16.1
2017-09-10T02:08:46.809Z,16.1
2017-09-10T02:09:49.215Z,16.1
2017-09-10T02:10:51.608Z,16.1
2017-09-10T02:11:53.999Z,16.1
2017-09-10T02:12:56.391Z,16.1
2017-09-10T02:13:58.793Z,16.1
2017-09-10T02:15:01.182Z,16.1
2017-09-10T02:16:03.578Z,16.1
2017-09-10T02:17:05.981Z,16.1
2017-09-10T02:18:08.368Z,16.1
2017-09-10T02:19:10.766Z,16.1
2017-09-10T02:20:13.163Z,16.1
2017-09-10T02:21:15.915Z,16.1
2017-09-10T02:22:18.311Z,16
2017-09-10T02:23:21.380Z,16.1
2017-09-10T02:24:23.766Z,16.1
2017-09-10T02:25:26.164Z,16
2017-09-10T02:26:28.900Z,16
2017-09-10T02:27:31.300Z,16
2017-09-10T02:28:33.695Z,16.1
2017-09-10T02:29:36.083Z,16
2017-09-10T02:30:38.472Z,16
2017-09-10T02:31:40.893Z,16.1
2017-09-10T02:32:43.281Z,16.1
2017-09-10T02:33:45.678Z,16.1
2017-09-10T02:34:48.076Z,16
2017-09-10T02:35:50.464Z,16.1
2017-09-10T02:36:52.860Z,16.1
2017-09-10T02:37:55.252Z,16
2017-09-10T02:38:57.640Z,16
2017-09-10T02:40:00.041Z,16
2017-09-10T02:41:02.432Z,16
2017-09-10T02:42:04.826Z,16.1
2017-09-10T02:43:07.217Z,16
2017-09-10T02:44:09.618Z,16
2017-09-10T02:45:12.013Z,16
2017-09-10T02:46:14.412Z,16
2017-09-10T02:47:16.808Z,16
2017-09-10T02:48:19.220Z,16
2017-09-10T02:49:21.609Z,16
2017-09-10T02:50:23.996Z,16
2017-09-10T02:51:26.395Z,16
2017-09-10T02:52:28.792Z,16
2017-09-10T02:53:31.516Z,16
2017-09-10T02:54:33.909Z,15.9
2017-09-10T02:55:36.305Z,16
2017-09-10T02:56:38.702Z,15.9
2017-09-10T02:57:41.106Z,15.9
2017-09-10T02:58:43.494Z,15.9
2017-09-10T02:59:45.887Z,15.9
2017-09-10T03:00:48.281Z,15.9
2017-09-10T03:01:50.673Z,15.9
2017-09-10T03:02:53.076Z,15.9
2017-09-10T03:03:55.469Z,15.8
2017-09-10T03:04:57.856Z,15.8
2017-09-10T03:06:00.253Z,15.8
2017-09-10T03:07:02.980Z,15.8
2017-09-10T03:08:05.375Z,15.8
2017-09-10T03:09:07.771Z,15.9
2017-09-10T03:10:10.166Z,15.8
2017-09-10T03:11:12.559Z,15.8
2017-09-10T03:12:14.957Z,15.8
2017-09-10T03:13:17.353Z,15.8
2017-09-10T03:14:19.747Z,15.8
2017-09-10T03:15:22.133Z,15.8
2017-09-10T03:16:24.536Z,15.8
2017-09-10T03:17:26.936Z,15.8
2017-09-10T03:18:29.332Z,15.8
2017-09-10T03:19:31.723Z,15.8
2017-09-10T03:20:34.460Z,15.8
2017-09-10T03:21:36.850Z,15.8
2017-09-10T03:22:39.251Z,15.8
2017-09-10T03:23:41.979Z,15.8
2017-09-10T03:24:44.368Z,15.8
2017-09-10T03:25:46.775Z,15.8
2017-09-10T03:26:49.172Z,15.8
2017-09-10T03:27:51.560Z,15.8
2017-09-10T03:28:53.951Z,15.8
2017-09-10T03:29:56.344Z,15.8
2017-09-10T03:30:58.747Z,15.8
2017-09-10T03:32:01.134Z,15.8
2017-09-10T03:33:03.537Z,15.8
2017-09-10T03:34:05.932Z,15.8
2017-09-10T03:35:08.327Z,15.8
2017-09-10T03:36:10.722Z,15.8
2017-09-10T03:37:13.120Z,15.8
2017-09-10T03:38:15.504Z,15.8
2017-09-10T03:39:17.894Z,15.8
2017-09-10T03:40:20.293Z,15.8
2017-09-10T03:41:22.688Z,15.8
2017-09-10T03:42:25.077Z,15.8
2017-09-10T03:43:27.472Z,15.8
2017-09-10T03:44:29.863Z,15.8
2017-09-10T03:45:32.259Z,15.8
2017-09-10T03:46:34.648Z,15.8
2017-09-10T03:47:37.051Z,15.7
2017-09-10T03:48:39.444Z,15.8
2017-09-10T03:49:41.837Z,15.8
2017-09-10T03:50:44.250Z,15.7
2017-09-10T03:51:46.651Z,15.7
2017-09-10T03:52:49.383Z,15.8
2017-09-10T03:53:52.495Z,15.7
2017-09-10T03:54:54.883Z,15.7
2017-09-10T03:55:57.275Z,15.7
2017-09-10T03:56:59.667Z,15.7
2017-09-10T03:58:02.054Z,15.7
2017-09-10T03:59:04.450Z,15.7
2017-09-10T04:00:06.846Z,15.7
2017-09-10T04:01:09.243Z,15.7
2017-09-10T04:02:11.976Z,15.7
2017-09-10T04:03:14.368Z,15.6
2017-09-10T04:04:16.752Z,15.6
2017-09-10T04:05:19.156Z,15.6
2017-09-10T04:06:21.546Z,15.6
2017-09-10T04:07:24.287Z,15.5
2017-09-10T04:08:26.681Z,15.5
2017-09-10T04:09:29.091Z,15.5
2017-09-10T04:10:31.484Z,15.5
2017-09-10T04:11:34.232Z,15.5
2017-09-10T04:12:36.616Z,15.5
2017-09-10T04:13:39.002Z,15.5
2017-09-10T04:14:41.394Z,15.4
2017-09-10T04:15:43.787Z,15.4
2017-09-10T04:16:46.526Z,15.4
2017-09-10T04:17:48.917Z,15.4
2017-09-10T04:18:51.313Z,15.4
2017-09-10T04:19:53.699Z,15.4
2017-09-10T04:20:56.092Z,15.4
2017-09-10T04:21:58.817Z,15.4
2017-09-10T04:23:01.222Z,15.4
2017-09-10T04:24:03.618Z,15.4
2017-09-10T04:25:06.006Z,15.4
2017-09-10T04:26:08.399Z,15.4
2017-09-10T04:27:10.796Z,15.4
2017-09-10T04:28:13.194Z,15.4
2017-09-10T04:29:15.601Z,15.4
2017-09-10T04:30:18.350Z,15.4
2017-09-10T04:31:20.743Z,15.4
2017-09-10T04:32:23.143Z,15.4
2017-09-10T04:33:25.541Z,15.4
2017-09-10T04:34:27.945Z,15.4
2017-09-10T04:35:30.338Z,15.4
2017-09-10T04:36:32.731Z,15.4
2017-09-10T04:37:35.147Z,15.4
2017-09-10T04:38:37.539Z,15.4
2017-09-10T04:39:39.947Z,15.4
2017-09-10T04:40:42.341Z,15.3
2017-09-10T04:41:44.731Z,15.4
2017-09-10T04:42:47.127Z,15.4
2017-09-10T04:43:49.522Z,15.3
2017-09-10T04:44:51.912Z,15.4
2017-09-10T04:45:54.318Z,15.3
2017-09-10T04:46:56.695Z,15.3
2017-09-10T04:47:59.109Z,15.3
2017-09-10T04:49:01.516Z,15.3
2017-09-10T04:50:03.919Z,15.3
2017-09-10T04:51:06.314Z,15.3
2017-09-10T04:52:08.708Z,15.3
2017-09-10T04:53:11.094Z,15.3
2017-09-10T04:54:13.494Z,15.2
2017-09-10T04:55:16.221Z,15.2
2017-09-10T04:56:18.606Z,15.2
2017-09-10T04:57:21.008Z,15.2
2017-09-10T04:58:23.401Z,15.2
2017-09-10T04:59:25.798Z,15.2
2017-09-10T05:00:28.196Z,15.2
2017-09-10T05:01:30.605Z,15.3
2017-09-10T05:02:33.001Z,15.3
2017-09-10T05:03:35.399Z,15.3
2017-09-10T05:04:37.798Z,15.3
2017-09-10T05:05:40.198Z,15.3
2017-09-10T05:06:42.586Z,15.3
2017-09-10T05:07:44.976Z,15.3
2017-09-10T05:08:47.381Z,15.3
2017-09-10T05:09:49.770Z,15.3
2017-09-10T05:10:52.166Z,15.3
2017-09-10T05:11:54.561Z,15.3
2017-09-10T05:12:56.962Z,15.3
2017-09-10T05:13:59.358Z,15.4
2017-09-10T05:15:01.778Z,15.4
2017-09-10T05:16:04.169Z,15.4
2017-09-10T05:17:06.907Z,15.4
2017-09-10T05:18:09.300Z,15.4
2017-09-10T05:19:11.700Z,15.4
2017-09-10T05:20:14.098Z,15.4
2017-09-10T05:21:16.499Z,15.4
2017-09-10T05:22:18.887Z,15.5
2017-09-10T05:23:21.277Z,15.5
2017-09-10T05:24:23.671Z,15.5
2017-09-10T05:25:26.408Z,15.5
2017-09-10T05:26:28.799Z,15.5
2017-09-10T05:27:31.190Z,15.5
2017-09-10T05:28:33.577Z,15.5
2017-09-10T05:29:35.969Z,15.5
2017-09-10T05:30:38.375Z,15.5
2017-09-10T05:31:40.774Z,15.5
2017-09-10T05:32:43.159Z,15.5
2017-09-10T05:33:45.568Z,15.5
2017-09-10T05:34:47.966Z,15.5
2017-09-10T05:35:50.360Z,15.5
2017-09-10T05:36:52.754Z,15.5
2017-09-10T05:37:55.503Z,15.6
2017-09-10T05:38:57.903Z,15.6
2017-09-10T05:40:00.293Z,15.6
2017-09-10T05:41:02.681Z,15.7
2017-09-10T05:42:05.081Z,15.7
2017-09-10T05:43:07.469Z,15.7
2017-09-10T05:44:09.860Z,15.8
2017-09-10T05:45:12.257Z,15.8
2017-09-10T05:46:14.649Z,15.8
2017-09-10T05:47:17.040Z,15.8
2017-09-10T05:48:19.431Z,15.9
2017-09-10T05:49:21.825Z,15.9
2017-09-10T05:50:24.228Z,15.9
2017-09-10T05:51:26.628Z,16
2017-09-10T05:52:29.016Z,16
2017-09-10T05:53:31.405Z,16
2017-09-10T05:54:33.792Z,16.1
2017-09-10T05:55:36.196Z,16.1
2017-09-10T05:56:38.596Z,16.2
2017-09-10T05:57:41.338Z,16.2
2017-09-10T05:58:43.717Z,16.2
2017-09-10T05:59:46.115Z,16.3
2017-09-10T06:00:48.526Z,16.3
2017-09-10T06:01:51.258Z,16.3
2017-09-10T06:02:53.990Z,16.4
2017-09-10T06:03:56.386Z,16.4
2017-09-10T06:04:58.784Z,16.4
2017-09-10T06:06:01.199Z,16.5
2017-09-10T06:07:03.587Z,16.5
2017-09-10T06:08:05.981Z,16.5
2017-09-10T06:09:08.378Z,16.6
2017-09-10T06:10:10.776Z,16.6
2017-09-10T06:11:13.172Z,16.6
2017-09-10T06:12:15.577Z,16.7
2017-09-10T06:13:17.988Z,16.7
2017-09-10T06:14:20.388Z,16.7
2017-09-10T06:15:22.783Z,16.7
2017-09-10T06:16:25.184Z,16.8
2017-09-10T06:17:27.578Z,16.8
2017-09-10T06:18:29.977Z,16.8
2017-09-10T06:19:32.370Z,16.8
2017-09-10T06:20:34.768Z,16.8
2017-09-10T06:21:37.200Z,16.9
2017-09-10T06:22:39.919Z,16.9
2017-09-10T06:23:42.323Z,16.9
2017-09-10T06:24:44.738Z,16.9
2017-09-10T06:25:47.140Z,16.9
2017-09-10T06:26:49.875Z,16.9
2017-09-10T06:27:52.279Z,17
2017-09-10T06:28:54.663Z,17
2017-09-10T06:29:57.068Z,17
2017-09-10T06:30:59.468Z,17
2017-09-10T06:32:01.868Z,17.1
2017-09-10T06:33:04.279Z,17.1
2017-09-10T06:34:06.681Z,17.1
2017-09-10T06:35:09.080Z,17.2
2017-09-10T06:36:11.486Z,17.3
2017-09-10T06:37:13.900Z,17.3
2017-09-10T06:38:16.285Z,17.3
2017-09-10T06:39:18.696Z,17.4
2017-09-10T06:40:21.789Z,17.4
2017-09-10T06:41:24.186Z,17.4
2017-09-10T06:42:26.922Z,17.5
2017-09-10T06:43:29.313Z,17.5
2017-09-10T06:44:31.711Z,17.6
2017-09-10T06:45:34.116Z,17.6
2017-09-10T06:46:36.502Z,17.7
2017-09-10T06:47:38.900Z,17.7
2017-09-10T06:48:41.309Z,17.8
2017-09-10T06:49:43.711Z,17.8
2017-09-10T06:50:46.113Z,17.9
2017-09-10T06:51:48.853Z,17.9
2017-09-10T06:52:51.260Z,17.9
2017-09-10T06:53:53.659Z,18
2017-09-10T06:54:56.066Z,18
2017-09-10T06:55:58.499Z,18
2017-09-10T06:57:00.896Z,18
2017-09-10T06:58:03.292Z,18
2017-09-10T06:59:05.693Z,18.1
2017-09-10T07:00:08.092Z,18.1
2017-09-10T07:01:10.520Z,18.1
2017-09-10T07:02:12.920Z,18.1
2017-09-10T07:03:15.327Z,18.2
2017-09-10T07:04:17.734Z,18.2
2017-09-10T07:05:20.140Z,18.3
2017-09-10T07:06:22.544Z,18.3
2017-09-10T07:07:24.941Z,18.3
2017-09-10T07:08:27.342Z,18.4
2017-09-10T07:09:29.740Z,18.4
2017-09-10T07:10:32.139Z,18.4
2017-09-10T07:11:34.539Z,18.4
2017-09-10T07:12:36.937Z,18.4
2017-09-10T07:13:39.341Z,18.4
2017-09-10T07:14:41.771Z,18.5
2017-09-10T07:15:44.169Z,18.5
2017-09-10T07:16:46.569Z,18.5
2017-09-10T07:17:48.978Z,18.5
2017-09-10T07:18:51.716Z,18.6
2017-09-10T07:19:54.810Z,18.5
2017-09-10T07:20:57.200Z,18.6
2017-09-10T07:21:59.605Z,18.6
2017-09-10T07:23:02.007Z,18.6
2017-09-10T07:24:04.735Z,18.6
2017-09-10T07:25:07.140Z,18.6
2017-09-10T07:26:09.884Z,18.6
2017-09-10T07:27:12.278Z,18.6
2017-09-10T07:28:14.674Z,18.7
2017-09-10T07:29:17.067Z,18.7
2017-09-10T07:30:19.467Z,18.7
2017-09-10T07:31:22.241Z,18.7
2017-09-10T07:32:24.628Z,18.8
2017-09-10T07:33:27.029Z,18.8
2017-09-10T07:34:29.439Z,18.8
2017-09-10T07:35:31.829Z,18.9
2017-09-10T07:36:34.252Z,18.9
2017-09-10T07:37:36.669Z,19
2017-09-10T07:38:39.386Z,19.1
2017-09-10T07:39:42.138Z,19.1
2017-09-10T07:40:44.524Z,19.1
2017-09-10T07:41:46.926Z,19.2
2017-09-10T07:42:49.325Z,19.2
2017-09-10T07:43:51.726Z,19.3
2017-09-10T07:44:54.128Z,19.3
2017-09-10T07:45:56.527Z,19.4
2017-09-10T07:46:58.929Z,19.4
2017-09-10T07:48:01.334Z,19.4
2017-09-10T07:49:03.738Z,19.4
2017-09-10T07:50:06.131Z,19.4
2017-09-10T07:51:08.530Z,19.4
2017-09-10T07:52:10.945Z,19.5
2017-09-10T07:53:13.346Z,19.5
2017-09-10T07:54:15.742Z,19.5
2017-09-10T07:55:18.138Z,19.6
2017-09-10T07:56:20.872Z,19.6
2017-09-10T07:57:23.279Z,19.7
2017-09-10T07:58:25.681Z,19.7
2017-09-10T07:59:28.075Z,19.7
2017-09-10T08:00:30.488Z,19.8
2017-09-10T08:01:32.886Z,19.9
2017-09-10T08:02:35.291Z,19.9
2017-09-10T08:03:37.683Z,20
2017-09-10T08:04:40.071Z,20
2017-09-10T08:05:42.479Z,20
2017-09-10T08:06:44.884Z,20.1
2017-09-10T08:07:47.278Z,20.2
2017-09-10T08:08:49.701Z,20.2
2017-09-10T08:09:52.100Z,20.2
2017-09-10T08:10:54.513Z,20.2
2017-09-10T08:11:56.909Z,20.2
2017-09-10T08:12:59.308Z,20.2
2017-09-10T08:14:01.716Z,20.2
2017-09-10T08:15:04.111Z,20.2
2017-09-10T08:16:06.511Z,20.2
2017-09-10T08:17:08.919Z,20.3
2017-09-10T08:18:11.324Z,20.3
2017-09-10T08:19:13.732Z,20.4
2017-09-10T08:20:16.132Z,20.4
2017-09-10T08:21:18.532Z,20.5
2017-09-10T08:22:20.935Z,20.6
2017-09-10T08:23:23.335Z,20.7
2017-09-10T08:24:25.735Z,20.8
2017-09-10T08:25:28.142Z,20.9
2017-09-10T08:26:30.543Z,21
2017-09-10T08:27:32.942Z,21.1
2017-09-10T08:28:35.676Z,21.3
2017-09-10T08:29:38.085Z,21.4
2017-09-10T08:30:40.480Z,21.5
2017-09-10T08:31:42.884Z,21.6
2017-09-10T08:32:45.613Z,21.7
2017-09-10T08:33:48.364Z,21.8
2017-09-10T08:34:50.775Z,21.9
2017-09-10T08:35:53.182Z,22.1
2017-09-10T08:36:55.589Z,22.2
2017-09-10T08:37:57.994Z,22.3
2017-09-10T08:39:00.398Z,22.4
2017-09-10T08:40:02.804Z,22.6
2017-09-10T08:41:05.301Z,22.7
2017-09-10T08:42:07.707Z,22.9
2017-09-10T08:43:10.113Z,23.1
2017-09-10T08:44:12.531Z,23.2
2017-09-10T08:45:14.952Z,23.3
2017-09-10T08:46:17.356Z,23.5
2017-09-10T08:47:19.772Z,23.6
2017-09-10T08:48:22.167Z,23.7
2017-09-10T08:49:24.569Z,23.9
2017-09-10T08:50:26.975Z,24
2017-09-10T08:51:29.387Z,24.2
2017-09-10T08:52:31.787Z,24.4
2017-09-10T08:53:34.212Z,24.5
2017-09-10T08:54:36.627Z,24.6
2017-09-10T08:55:39.382Z,24.8
2017-09-10T08:56:41.797Z,24.9
2017-09-10T08:57:44.202Z,25.1
2017-09-10T08:58:46.605Z,25.1
2017-09-10T08:59:49.007Z,25.3
2017-09-10T09:00:51.423Z,25.4
2017-09-10T09:01:53.834Z,25.5
2017-09-10T09:02:56.234Z,25.6
2017-09-10T09:03:58.640Z,25.8
2017-09-10T09:05:01.407Z,26
2017-09-10T09:06:03.825Z,26.1
2017-09-10T09:07:06.595Z,26.3
2017-09-10T09:08:09.047Z,26.4
2017-09-10T09:09:11.429Z,26.6
2017-09-10T09:10:13.844Z,26.7
2017-09-10T09:11:16.260Z,26.8
2017-09-10T09:12:18.663Z,26.9
2017-09-10T09:13:21.072Z,27
2017-09-10T09:14:23.481Z,27
2017-09-10T09:15:25.895Z,27.1
2017-09-10T09:16:28.302Z,27.2
2017-09-10T09:17:30.707Z,27.3
2017-09-10T09:18:33.471Z,27.3
2017-09-10T09:19:35.883Z,27.4
2017-09-10T09:20:38.284Z,27.5
2017-09-10T09:21:41.039Z,27.5
2017-09-10T09:22:43.449Z,27.6
2017-09-10T09:23:45.858Z,27.7
2017-09-10T09:24:48.271Z,27.7
2017-09-10T09:25:50.690Z,27.8
2017-09-10T09:26:53.437Z,27.9
2017-09-10T09:27:55.856Z,28
2017-09-10T09:28:58.268Z,28
2017-09-10T09:30:00.665Z,28.1
2017-09-10T09:31:03.086Z,28.1
2017-09-10T09:32:05.497Z,28.2
2017-09-10T09:33:07.912Z,28.3
2017-09-10T09:34:10.319Z,28.3
2017-09-10T09:35:12.725Z,28.4
2017-09-10T09:36:15.158Z,28.5
2017-09-10T09:37:17.578Z,28.6
2017-09-10T09:38:19.985Z,28.6
2017-09-10T09:39:22.407Z,28.6
2017-09-10T09:40:24.826Z,28.6
2017-09-10T09:41:27.246Z,28.6
2017-09-10T09:42:29.999Z,28.6
2017-09-10T09:43:32.411Z,28.7
2017-09-10T09:44:34.864Z,28.8
2017-09-10T09:45:37.245Z,28.8
2017-09-10T09:46:39.654Z,28.9
2017-09-10T09:47:42.067Z,28.9
2017-09-10T09:48:44.481Z,28.9
2017-09-10T09:49:46.898Z,28.9
2017-09-10T09:50:49.309Z,28.9
2017-09-10T09:51:51.735Z,28.9
2017-09-10T09:52:54.476Z,28.9
2017-09-10T09:53:56.892Z,28.8
2017-09-10T09:54:59.306Z,28.9
2017-09-10T09:56:01.711Z,28.9
2017-09-10T09:57:04.136Z,29
2017-09-10T09:58:06.548Z,29
2017-09-10T09:59:08.959Z,28.9
2017-09-10T10:00:11.376Z,28.9
2017-09-10T10:01:13.771Z,29
2017-09-10T10:02:16.183Z,28.9
2017-09-10T10:03:18.604Z,28.9
2017-09-10T10:04:21.009Z,28.8
2017-09-10T10:05:23.754Z,28.8
2017-09-10T10:06:26.159Z,28.7
2017-09-10T10:07:28.575Z,28.7
2017-09-10T10:08:30.972Z,28.6
2017-09-10T10:09:33.383Z,28.5
2017-09-10T10:10:35.801Z,28.4
2017-09-10T10:11:38.215Z,28.4
2017-09-10T10:12:40.627Z,28.4
2017-09-10T10:13:43.037Z,28.5
2017-09-10T10:14:45.446Z,28.6
2017-09-10T10:15:47.864Z,28.6
2017-09-10T10:16:50.282Z,28.6
2017-09-10T10:17:52.685Z,28.6
2017-09-10T10:18:55.452Z,28.6
2017-09-10T10:19:58.215Z,28.5
2017-09-10T10:21:00.622Z,28.4
2017-09-10T10:22:03.029Z,28.4
2017-09-10T10:23:05.436Z,28.5
2017-09-10T10:24:07.846Z,28.6
2017-09-10T10:25:10.259Z,28.7
2017-09-10T10:26:12.666Z,28.8
2017-09-10T10:27:15.081Z,28.8
2017-09-10T10:28:17.495Z,28.9
2017-09-10T10:29:19.904Z,28.9
2017-09-10T10:30:22.322Z,29
2017-09-10T10:31:24.734Z,29
2017-09-10T10:32:27.143Z,29
2017-09-10T10:33:29.551Z,28.9
2017-09-10T10:34:31.970Z,28.8
2017-09-10T10:35:34.388Z,28.7
2017-09-10T10:36:36.797Z,28.6
2017-09-10T10:37:39.212Z,28.4
2017-09-10T10:38:41.618Z,28.4
2017-09-10T10:39:44.019Z,28.4
2017-09-10T10:40:46.426Z,28.4
2017-09-10T10:41:48.855Z,28.5
2017-09-10T10:42:51.265Z,28.6
2017-09-10T10:43:53.999Z,28.7
2017-09-10T10:44:56.414Z,28.7
2017-09-10T10:45:58.823Z,28.7
2017-09-10T10:47:01.240Z,28.7
2017-09-10T10:48:03.650Z,28.7
2017-09-10T10:49:06.051Z,28.7
2017-09-10T10:50:08.463Z,28.6
2017-09-10T10:51:11.216Z,28.6
2017-09-10T10:52:13.620Z,28.5
2017-09-10T10:53:16.381Z,28.5
2017-09-10T10:54:18.791Z,28.5
2017-09-10T10:55:21.200Z,28.4
2017-09-10T10:56:23.613Z,28.4
2017-09-10T10:57:26.023Z,28.3
2017-09-10T10:58:28.425Z,28.3
2017-09-10T10:59:30.838Z,28.3
2017-09-10T11:00:33.254Z,28.4
2017-09-10T11:01:35.663Z,28.4
2017-09-10T11:02:38.089Z,28.4
2017-09-10T11:03:40.497Z,28.4
2017-09-10T11:04:42.905Z,28.4
2017-09-10T11:05:45.312Z,28.4
2017-09-10T11:06:47.724Z,28.5
2017-09-10T11:07:50.138Z,28.6
2017-09-10T11:08:52.550Z,28.6
2017-09-10T11:09:54.956Z,28.7
2017-09-10T11:10:57.362Z,28.8
2017-09-10T11:11:59.777Z,29
2017-09-10T11:13:02.524Z,29.1
2017-09-10T11:14:04.920Z,29.1
2017-09-10T11:15:07.332Z,29.2
2017-09-10T11:16:09.736Z,29.2
2017-09-10T11:17:12.154Z,29.2
2017-09-10T11:18:14.565Z,29.3
2017-09-10T11:19:16.972Z,29.3
2017-09-10T11:20:19.380Z,29.4
2017-09-10T11:21:21.793Z,29.4
2017-09-10T11:22:24.206Z,29.4
2017-09-10T11:23:26.613Z,29.4
2017-09-10T11:24:29.023Z,29.4
2017-09-10T11:25:31.439Z,29.3
2017-09-10T11:26:33.840Z,29.3
2017-09-10T11:27:36.265Z,29.2
2017-09-10T11:28:38.676Z,29.1
2017-09-10T11:29:41.086Z,28.9
2017-09-10T11:30:43.494Z,28.9
2017-09-10T11:31:45.911Z,28.8
2017-09-10T11:32:48.318Z,28.8
2017-09-10T11:33:50.735Z,28.8
2017-09-10T11:34:53.169Z,28.9
2017-09-10T11:35:55.568Z,28.9
2017-09-10T11:36:57.987Z,28.9
2017-09-10T11:38:00.734Z,29
2017-09-10T11:39:03.152Z,28.9
2017-09-10T11:40:05.572Z,29
2017-09-10T11:41:08.327Z,29.1
2017-09-10T11:42:10.740Z,29.1
2017-09-10T11:43:13.135Z,29.1
2017-09-10T11:44:15.888Z,29.1
2017-09-10T11:45:18.300Z,29.1
2017-09-10T11:46:20.712Z,29.2
2017-09-10T11:47:23.567Z,29.2
2017-09-10T11:48:25.982Z,29.2
2017-09-10T11:49:28.392Z,29.2
2017-09-10T11:50:30.810Z,29.2
2017-09-10T11:51:33.218Z,29.2
2017-09-10T11:52:35.635Z,29.2
2017-09-10T11:53:38.053Z,29.2
2017-09-10T11:54:40.466Z,29.2
2017-09-10T11:55:42.884Z,29.2
2017-09-10T11:56:45.293Z,29.2
2017-09-10T11:57:47.703Z,29.3
2017-09-10T11:58:50.130Z,29.3
2017-09-10T11:59:52.544Z,29.4
2017-09-10T12:00:54.952Z,29.5
2017-09-10T12:01:57.360Z,29.5
2017-09-10T12:02:59.766Z,29.5
2017-09-10T12:04:02.178Z,29.5
2017-09-10T12:05:04.609Z,29.6
2017-09-10T12:06:07.024Z,29.7
2017-09-10T12:07:09.427Z,29.7
2017-09-10T12:08:11.844Z,29.7
2017-09-10T12:09:14.255Z,29.7
2017-09-10T12:10:16.670Z,29.8
2017-09-10T12:11:19.084Z,29.9
2017-09-10T12:12:21.552Z,30
2017-09-10T12:13:23.954Z,30
2017-09-10T12:14:26.376Z,30.1
2017-09-10T12:15:28.788Z,30.2
2017-09-10T12:16:31.203Z,30.3
2017-09-10T12:17:33.625Z,30.3
2017-09-10T12:18:36.049Z,30.3
2017-09-10T12:19:38.455Z,30.4
2017-09-10T12:20:40.869Z,30.4
2017-09-10T12:21:43.272Z,30.4
2017-09-10T12:22:45.688Z,30.4
2017-09-10T12:23:48.102Z,30.4
2017-09-10T12:24:50.510Z,30.4
2017-09-10T12:25:52.937Z,30.4
2017-09-10T12:26:55.346Z,30.3
2017-09-10T12:27:58.108Z,30.2
2017-09-10T12:29:00.526Z,30.2
2017-09-10T12:30:02.938Z,30.2
2017-09-10T12:31:05.685Z,30.1
2017-09-10T12:32:08.105Z,30.1
2017-09-10T12:33:10.524Z,30.1
2017-09-10T12:34:12.938Z,30.1
2017-09-10T12:35:15.691Z,30.1
2017-09-10T12:36:18.111Z,30.2
2017-09-10T12:37:20.522Z,30.1
2017-09-10T12:38:22.925Z,30
2017-09-10T12:39:25.337Z,30
2017-09-10T12:40:27.751Z,29.9
2017-09-10T12:41:30.531Z,29.9
2017-09-10T12:42:32.943Z,29.8
2017-09-10T12:43:35.357Z,29.9
2017-09-10T12:44:37.768Z,29.8
2017-09-10T12:45:40.176Z,29.8
2017-09-10T12:46:42.586Z,29.8
2017-09-10T12:47:45.002Z,29.7
2017-09-10T12:48:47.425Z,29.8
2017-09-10T12:49:49.844Z,29.9
2017-09-10T12:50:52.248Z,30
2017-09-10T12:51:54.695Z,30
2017-09-10T12:52:57.063Z,30.1
2017-09-10T12:53:59.481Z,30.1
2017-09-10T12:55:01.892Z,30.1
2017-09-10T12:56:04.310Z,30.1
2017-09-10T12:57:06.722Z,30.1
2017-09-10T12:58:09.138Z,30.1
2017-09-10T12:59:11.559Z,30.1
2017-09-10T13:00:13.970Z,30.2
2017-09-10T13:01:16.392Z,30.2
2017-09-10T13:02:18.805Z,30.2
2017-09-10T13:03:21.211Z,30.3
2017-09-10T13:04:23.625Z,30.4
2017-09-10T13:05:26.040Z,30.4
2017-09-10T13:06:28.437Z,30.5
2017-09-10T13:07:30.856Z,30.6
2017-09-10T13:08:33.274Z,30.7
2017-09-10T13:09:35.689Z,30.7
2017-09-10T13:10:38.139Z,30.8
2017-09-10T13:11:40.550Z,30.8
2017-09-10T13:12:42.961Z,30.8
2017-09-10T13:13:45.383Z,30.8
2017-09-10T13:14:47.795Z,30.7
2017-09-10T13:15:50.199Z,30.6
2017-09-10T13:16:52.616Z,30.5
2017-09-10T13:17:55.031Z,30.4
2017-09-10T13:18:57.447Z,30.4
2017-09-10T13:19:59.864Z,30.4
2017-09-10T13:21:02.625Z,30.4
2017-09-10T13:22:05.034Z,30.4
2017-09-10T13:23:07.450Z,30.5
2017-09-10T13:24:09.870Z,30.5
2017-09-10T13:25:12.271Z,30.4
2017-09-10T13:26:15.018Z,30.4
2017-09-10T13:27:17.421Z,30.4
2017-09-10T13:28:19.861Z,30.4
2017-09-10T13:29:22.304Z,30.3
2017-09-10T13:30:24.721Z,30.3
2017-09-10T13:31:27.151Z,30.2
2017-09-10T13:32:29.572Z,30.2
2017-09-10T13:33:32.394Z,30.2
2017-09-10T13:34:34.823Z,30.2
2017-09-10T13:35:37.258Z,30.2
2017-09-10T13:36:39.682Z,30.2
2017-09-10T13:37:42.099Z,30.2
2017-09-10T13:38:44.535Z,30.2
2017-09-10T13:39:46.950Z,30.3
2017-09-10T13:40:49.370Z,30.3
2017-09-10T13:41:51.811Z,30.4
2017-09-10T13:42:54.250Z,30.3
2017-09-10T13:43:56.704Z,30.4
2017-09-10T13:44:59.138Z,30.4
2017-09-10T13:46:01.562Z,30.4
2017-09-10T13:47:04.353Z,30.4
2017-09-10T13:48:06.783Z,30.3
2017-09-10T13:49:09.223Z,30.4
2017-09-10T13:50:11.649Z,30.4
2017-09-10T13:51:14.075Z,30.4
2017-09-10T13:52:16.501Z,30.4
2017-09-10T13:53:18.932Z,30.5
2017-09-10T13:54:21.391Z,30.5
2017-09-10T13:55:23.830Z,30.5
2017-09-10T13:56:26.249Z,30.6